sensor_id;sensor_type;location;lat;lon;timestamp;pressure;altitude;pressure_sealevel;temperature;humidity
56272;BME280;42177;48.914;18.160;2022-12-29T00:01:47;989.1;;;4.6;70.3
56272;BME280;42177;48.914;18.160;2022-12-29T00:06:47;989.1;;;4.6;70.3
56272;BME280;42177;48.914;18.160;2022-12-29T00:11:47;989;;;5;69.8
56272;BME280;42177;48.914;18.160;2022-12-29T00:16:47;989;;;5;69.8
56272;BME280;42177;48.914;18.160;2022-12-29T00:21:47;989;;;5.1;69.7
56272;BME280;42177;48.914;18.160;2022-12-29T00:26:47;989;;;5.1;69.7
56272;BME280;42177;48.914;18.160;2022-12-29T00:31:47;989;;;5.3;68
56272;BME280;42177;48.914;18.160;2022-12-29T00:36:47;989;;;5.3;68
56272;BME280;42177;48.914;18.160;2022-12-29T00:41:47;989;;;5;69
56272;BME280;42177;48.914;18.160;2022-12-29T00:46:47;989;;;5;69
56272;BME280;42177;48.914;18.160;2022-12-29T00:51:47;989;;;5.1;68.9
56272;BME280;42177;48.914;18.160;2022-12-29T00:56:47;989;;;5.1;68.9
56272;BME280;42177;48.914;18.160;2022-12-29T01:01:47;989.1;;;5.2;68.2
56272;BME280;42177;48.914;18.160;2022-12-29T01:06:47;989.1;;;5.2;68.2
56272;BME280;42177;48.914;18.160;2022-12-29T01:11:47;989.1;;;5.3;68.5
56272;BME280;42177;48.914;18.160;2022-12-29T01:16:47;989.1;;;5.3;68.5
56272;BME280;42177;48.914;18.160;2022-12-29T01:21:47;989.2;;;4.8;69.6
56272;BME280;42177;48.914;18.160;2022-12-29T01:26:47;989.2;;;4.8;69.6
56272;BME280;42177;48.914;18.160;2022-12-29T01:31:47;989.3;;;5;69.7
56272;BME280;42177;48.914;18.160;2022-12-29T01:36:47;989.3;;;5;69.7
56272;BME280;42177;48.914;18.160;2022-12-29T01:41:47;989.1;;;5.2;69.8
56272;BME280;42177;48.914;18.160;2022-12-29T01:46:47;989.1;;;5.2;69.8
56272;BME280;42177;48.914;18.160;2022-12-29T01:51:49;989;;;5;69.7
56272;BME280;42177;48.914;18.160;2022-12-29T01:56:47;989;;;5;69.7
56272;BME280;42177;48.914;18.160;2022-12-29T02:01:47;989;;;4.9;69.8
56272;BME280;42177;48.914;18.160;2022-12-29T02:06:47;989;;;4.9;69.8
56272;BME280;42177;48.914;18.160;2022-12-29T02:11:47;989.2;;;5.1;69.2
56272;BME280;42177;48.914;18.160;2022-12-29T02:16:51;989.2;;;5.1;69.2
56272;BME280;42177;48.914;18.160;2022-12-29T02:21:49;988.8;;;4.8;70.4
56272;BME280;42177;48.914;18.160;2022-12-29T02:26:49;988.8;;;4.8;70.4
56272;BME280;42177;48.914;18.160;2022-12-29T02:31:48;988.9;;;4.9;70.1
56272;BME280;42177;48.914;18.160;2022-12-29T02:36:49;988.9;;;4.9;70.1
56272;BME280;42177;48.914;18.160;2022-12-29T02:41:49;988.8;;;4.6;71.7
56272;BME280;42177;48.914;18.160;2022-12-29T02:46:47;988.8;;;4.6;71.7
56272;BME280;42177;48.914;18.160;2022-12-29T02:51:48;988.9;;;4.9;70.5
56272;BME280;42177;48.914;18.160;2022-12-29T02:56:47;988.9;;;4.9;70.5
56272;BME280;42177;48.914;18.160;2022-12-29T03:01:54;988.7;;;5.1;70
56272;BME280;42177;48.914;18.160;2022-12-29T03:06:49;988.7;;;5.1;70
56272;BME280;42177;48.914;18.160;2022-12-29T03:11:50;988.7;;;5;69.6
56272;BME280;42177;48.914;18.160;2022-12-29T03:16:47;988.7;;;5;69.6
56272;BME280;42177;48.914;18.160;2022-12-29T03:21:47;988.7;;;5.1;69.6
56272;BME280;42177;48.914;18.160;2022-12-29T03:26:47;988.7;;;5.1;69.6
56272;BME280;42177;48.914;18.160;2022-12-29T03:31:47;988.8;;;5.2;69.5
56272;BME280;42177;48.914;18.160;2022-12-29T03:36:47;988.8;;;5.2;69.5
56272;BME280;42177;48.914;18.160;2022-12-29T03:41:47;988.7;;;5.2;70.1
56272;BME280;42177;48.914;18.160;2022-12-29T03:46:47;988.7;;;5.2;70.1
56272;BME280;42177;48.914;18.160;2022-12-29T03:51:47;988.7;;;5.5;68.6
56272;BME280;42177;48.914;18.160;2022-12-29T03:56:47;988.7;;;5.5;68.6
56272;BME280;42177;48.914;18.160;2022-12-29T04:01:47;988.6;;;5.3;68.9
56272;BME280;42177;48.914;18.160;2022-12-29T04:06:47;988.6;;;5.3;68.9
56272;BME280;42177;48.914;18.160;2022-12-29T04:11:47;988.6;;;5.3;69.4
56272;BME280;42177;48.914;18.160;2022-12-29T04:16:47;988.6;;;5.3;69.4
56272;BME280;42177;48.914;18.160;2022-12-29T04:21:47;988.6;;;5.2;69.9
56272;BME280;42177;48.914;18.160;2022-12-29T04:26:47;988.6;;;5.2;69.9
56272;BME280;42177;48.914;18.160;2022-12-29T04:31:47;988.3;;;5.3;70.5
56272;BME280;42177;48.914;18.160;2022-12-29T04:36:47;988.3;;;5.3;70.5
56272;BME280;42177;48.914;18.160;2022-12-29T04:41:47;988.3;;;5.3;70.4
56272;BME280;42177;48.914;18.160;2022-12-29T04:46:47;988.3;;;5.3;70.4
56272;BME280;42177;48.914;18.160;2022-12-29T04:51:47;988.3;;;5.4;70.8
56272;BME280;42177;48.914;18.160;2022-12-29T04:56:47;988.3;;;5.4;70.8
56272;BME280;42177;48.914;18.160;2022-12-29T05:01:47;988.3;;;5.5;70.6
56272;BME280;42177;48.914;18.160;2022-12-29T05:06:47;988.3;;;5.5;70.6
56272;BME280;42177;48.914;18.160;2022-12-29T05:11:47;988.3;;;5.4;71.1
56272;BME280;42177;48.914;18.160;2022-12-29T05:16:47;988.3;;;5.4;71.1
56272;BME280;42177;48.914;18.160;2022-12-29T05:21:47;988.3;;;5.4;71.6
56272;BME280;42177;48.914;18.160;2022-12-29T05:26:47;988.3;;;5.4;71.6
56272;BME280;42177;48.914;18.160;2022-12-29T05:31:47;988.4;;;5.4;70.9
56272;BME280;42177;48.914;18.160;2022-12-29T05:36:47;988.4;;;5.4;70.9
56272;BME280;42177;48.914;18.160;2022-12-29T05:41:47;988.4;;;5.2;72.2
56272;BME280;42177;48.914;18.160;2022-12-29T05:46:47;988.4;;;5.2;72.2
56272;BME280;42177;48.914;18.160;2022-12-29T05:51:47;988.4;;;5.3;71.5
56272;BME280;42177;48.914;18.160;2022-12-29T05:56:47;988.4;;;5.3;71.5
56272;BME280;42177;48.914;18.160;2022-12-29T06:01:47;988.5;;;5.4;71.8
56272;BME280;42177;48.914;18.160;2022-12-29T06:06:47;988.5;;;5.4;71.8
56272;BME280;42177;48.914;18.160;2022-12-29T06:11:47;988.4;;;5.2;72.1
56272;BME280;42177;48.914;18.160;2022-12-29T06:16:47;988.4;;;5.2;72.1
56272;BME280;42177;48.914;18.160;2022-12-29T06:21:47;988.3;;;5.3;72.7
56272;BME280;42177;48.914;18.160;2022-12-29T06:26:47;988.3;;;5.3;72.7
56272;BME280;42177;48.914;18.160;2022-12-29T06:31:47;988.3;;;5.4;72
56272;BME280;42177;48.914;18.160;2022-12-29T06:36:47;988.3;;;5.4;72
56272;BME280;42177;48.914;18.160;2022-12-29T06:41:47;988.3;;;5.6;71.9
56272;BME280;42177;48.914;18.160;2022-12-29T06:46:47;988.3;;;5.6;71.9
56272;BME280;42177;48.914;18.160;2022-12-29T06:51:47;988.2;;;5.3;72.8
56272;BME280;42177;48.914;18.160;2022-12-29T06:56:47;988.2;;;5.3;72.8
56272;BME280;42177;48.914;18.160;2022-12-29T07:01:47;988.3;;;5.5;72.7
56272;BME280;42177;48.914;18.160;2022-12-29T07:06:47;988.3;;;5.5;72.7
56272;BME280;42177;48.914;18.160;2022-12-29T07:11:47;988.3;;;5.6;72.6
56272;BME280;42177;48.914;18.160;2022-12-29T07:16:47;988.3;;;5.6;72.6
56272;BME280;42177;48.914;18.160;2022-12-29T07:21:47;988.5;;;5.6;73
56272;BME280;42177;48.914;18.160;2022-12-29T07:26:47;988.5;;;5.6;73
56272;BME280;42177;48.914;18.160;2022-12-29T07:31:47;988.5;;;5.6;72.2
56272;BME280;42177;48.914;18.160;2022-12-29T07:36:47;988.5;;;5.6;72.2
56272;BME280;42177;48.914;18.160;2022-12-29T07:41:47;988.4;;;5.5;73.5
56272;BME280;42177;48.914;18.160;2022-12-29T07:46:47;988.4;;;5.5;73.5
56272;BME280;42177;48.914;18.160;2022-12-29T07:51:47;988.4;;;5.5;73.4
56272;BME280;42177;48.914;18.160;2022-12-29T07:56:48;988.4;;;5.5;73.4
56272;BME280;42177;48.914;18.160;2022-12-29T08:01:47;988.4;;;5.8;73.2
56272;BME280;42177;48.914;18.160;2022-12-29T08:06:47;988.4;;;5.8;73.2
56272;BME280;42177;48.914;18.160;2022-12-29T08:11:47;988.4;;;5.7;74.3
56272;BME280;42177;48.914;18.160;2022-12-29T08:16:47;988.4;;;5.7;74.3
56272;BME280;42177;48.914;18.160;2022-12-29T08:21:47;988.5;;;5.7;74.7
56272;BME280;42177;48.914;18.160;2022-12-29T08:26:47;988.5;;;5.7;74.7
56272;BME280;42177;48.914;18.160;2022-12-29T08:31:47;988.5;;;5.8;74.4
56272;BME280;42177;48.914;18.160;2022-12-29T08:36:47;988.5;;;5.8;74.4
56272;BME280;42177;48.914;18.160;2022-12-29T08:41:47;988.8;;;5.8;73.9
56272;BME280;42177;48.914;18.160;2022-12-29T08:46:47;988.8;;;5.8;73.9
56272;BME280;42177;48.914;18.160;2022-12-29T08:51:47;988.5;;;6;73.6
56272;BME280;42177;48.914;18.160;2022-12-29T08:56:47;988.5;;;6;73.6
56272;BME280;42177;48.914;18.160;2022-12-29T09:01:47;988.6;;;6.3;72.6
56272;BME280;42177;48.914;18.160;2022-12-29T09:06:47;988.6;;;6.3;72.6
56272;BME280;42177;48.914;18.160;2022-12-29T09:11:47;988.5;;;6.1;73.9
56272;BME280;42177;48.914;18.160;2022-12-29T09:16:47;988.5;;;6.1;73.9
56272;BME280;42177;48.914;18.160;2022-12-29T09:21:47;988.5;;;6;74.5
56272;BME280;42177;48.914;18.160;2022-12-29T09:26:47;988.5;;;6;74.5
56272;BME280;42177;48.914;18.160;2022-12-29T09:31:47;988.7;;;7.8;85.3
56272;BME280;42177;48.914;18.160;2022-12-29T09:36:47;988.7;;;7.8;85.3
56272;BME280;42177;48.914;18.160;2022-12-29T09:41:48;988.4;;;6.4;75.6
56272;BME280;42177;48.914;18.160;2022-12-29T09:46:48;988.4;;;6.4;75.6
56272;BME280;42177;48.914;18.160;2022-12-29T09:51:48;988.3;;;6.3;76.2
56272;BME280;42177;48.914;18.160;2022-12-29T09:56:47;988.3;;;6.3;76.2
56272;BME280;42177;48.914;18.160;2022-12-29T10:01:49;988.1;;;6.7;75.3
56272;BME280;42177;48.914;18.160;2022-12-29T10:06:51;988.1;;;6.7;75.3
56272;BME280;42177;48.914;18.160;2022-12-29T10:11:52;988;;;6.5;75.1
56272;BME280;42177;48.914;18.160;2022-12-29T10:16:49;988;;;6.5;75.1
56272;BME280;42177;48.914;18.160;2022-12-29T10:21:50;987.7;;;7.1;73.6
56272;BME280;42177;48.914;18.160;2022-12-29T10:26:47;987.7;;;7.1;73.6
56272;BME280;42177;48.914;18.160;2022-12-29T10:31:47;987.9;;;7.4;71.9
56272;BME280;42177;48.914;18.160;2022-12-29T10:36:47;987.9;;;7.4;71.9
56272;BME280;42177;48.914;18.160;2022-12-29T10:41:48;987.8;;;6.9;73
56272;BME280;42177;48.914;18.160;2022-12-29T10:46:50;987.8;;;6.9;73
56272;BME280;42177;48.914;18.160;2022-12-29T10:51:47;987.8;;;7.1;72.8
56272;BME280;42177;48.914;18.160;2022-12-29T10:56:48;987.8;;;7.1;72.8
56272;BME280;42177;48.914;18.160;2022-12-29T11:01:49;987.9;;;7.3;72.9
56272;BME280;42177;48.914;18.160;2022-12-29T11:06:47;987.9;;;7.3;72.9
56272;BME280;42177;48.914;18.160;2022-12-29T11:11:47;987.9;;;7.9;70.6
56272;BME280;42177;48.914;18.160;2022-12-29T11:16:56;987.9;;;7.9;70.6
56272;BME280;42177;48.914;18.160;2022-12-29T11:21:47;987.9;;;7.8;71.4
56272;BME280;42177;48.914;18.160;2022-12-29T11:26:48;987.9;;;7.8;71.4
56272;BME280;42177;48.914;18.160;2022-12-29T11:31:47;987.8;;;7.5;72.2
56272;BME280;42177;48.914;18.160;2022-12-29T11:36:47;987.8;;;7.5;72.2
56272;BME280;42177;48.914;18.160;2022-12-29T11:41:50;987.7;;;7.7;70.8
56272;BME280;42177;48.914;18.160;2022-12-29T11:46:48;987.7;;;7.7;70.8
56272;BME280;42177;48.914;18.160;2022-12-29T11:51:47;987.5;;;7.9;70.6
56272;BME280;42177;48.914;18.160;2022-12-29T11:56:47;987.5;;;7.9;70.6
56272;BME280;42177;48.914;18.160;2022-12-29T12:01:47;987.3;;;8.5;68.6
56272;BME280;42177;48.914;18.160;2022-12-29T12:06:47;987.3;;;8.5;68.6
56272;BME280;42177;48.914;18.160;2022-12-29T12:11:47;987.3;;;8.6;68.1
56272;BME280;42177;48.914;18.160;2022-12-29T12:16:47;987.3;;;8.6;68.1
56272;BME280;42177;48.914;18.160;2022-12-29T12:21:47;987.3;;;8.8;67.6
56272;BME280;42177;48.914;18.160;2022-12-29T12:26:51;987.3;;;8.8;67.6
56272;BME280;42177;48.914;18.160;2022-12-29T12:31:47;987.1;;;9.2;65.4
56272;BME280;42177;48.914;18.160;2022-12-29T12:36:51;987.1;;;9.2;65.4
56272;BME280;42177;48.914;18.160;2022-12-29T12:41:48;986.8;;;9.4;64.5
56272;BME280;42177;48.914;18.160;2022-12-29T12:46:54;986.8;;;9.4;64.5
56272;BME280;42177;48.914;18.160;2022-12-29T12:51:48;986.8;;;9.3;64.4
56272;BME280;42177;48.914;18.160;2022-12-29T12:56:51;986.8;;;9.3;64.4
56272;BME280;42177;48.914;18.160;2022-12-29T13:01:48;986.8;;;8.2;70.2
56272;BME280;42177;48.914;18.160;2022-12-29T13:06:47;986.8;;;8.2;70.2
56272;BME280;42177;48.914;18.160;2022-12-29T13:11:51;986.8;;;8.1;71.8
56272;BME280;42177;48.914;18.160;2022-12-29T13:16:48;986.8;;;8.1;71.8
56272;BME280;42177;48.914;18.160;2022-12-29T13:21:50;986.9;;;7.7;75.3
56272;BME280;42177;48.914;18.160;2022-12-29T13:26:48;986.9;;;7.7;75.3
56272;BME280;42177;48.914;18.160;2022-12-29T13:31:49;986.9;;;7.4;76.8
56272;BME280;42177;48.914;18.160;2022-12-29T13:36:48;986.9;;;7.4;76.8
56272;BME280;42177;48.914;18.160;2022-12-29T13:41:48;986.9;;;7.6;77.3
56272;BME280;42177;48.914;18.160;2022-12-29T13:46:47;986.9;;;7.6;77.3
56272;BME280;42177;48.914;18.160;2022-12-29T13:51:48;986.8;;;7.7;76.8
56272;BME280;42177;48.914;18.160;2022-12-29T13:56:49;986.8;;;7.7;76.8
56272;BME280;42177;48.914;18.160;2022-12-29T14:01:49;986.8;;;7.7;77.9
56272;BME280;42177;48.914;18.160;2022-12-29T14:06:47;986.8;;;7.7;77.9
56272;BME280;42177;48.914;18.160;2022-12-29T14:11:47;986.8;;;7.7;77.8
56272;BME280;42177;48.914;18.160;2022-12-29T14:16:47;986.8;;;7.7;77.8
56272;BME280;42177;48.914;18.160;2022-12-29T14:21:50;987;;;7.3;79.4
56272;BME280;42177;48.914;18.160;2022-12-29T14:26:47;987;;;7.3;79.4
56272;BME280;42177;48.914;18.160;2022-12-29T14:31:47;987.2;;;7.7;78.9
56272;BME280;42177;48.914;18.160;2022-12-29T14:36:52;987.2;;;7.7;78.9
56272;BME280;42177;48.914;18.160;2022-12-29T14:41:47;986.9;;;7.2;81.2
56272;BME280;42177;48.914;18.160;2022-12-29T14:46:49;986.9;;;7.2;81.2
56272;BME280;42177;48.914;18.160;2022-12-29T14:51:47;987;;;7.3;81.3
56272;BME280;42177;48.914;18.160;2022-12-29T14:56:47;987;;;7.3;81.3
56272;BME280;42177;48.914;18.160;2022-12-29T15:01:47;987;;;7.3;81.1
56272;BME280;42177;48.914;18.160;2022-12-29T15:06:47;987;;;7.3;81.1
56272;BME280;42177;48.914;18.160;2022-12-29T15:11:47;987.1;;;7.2;81.7
56272;BME280;42177;48.914;18.160;2022-12-29T15:16:47;987.1;;;7.2;81.7
56272;BME280;42177;48.914;18.160;2022-12-29T15:21:47;987.1;;;7.1;82.3
56272;BME280;42177;48.914;18.160;2022-12-29T15:26:49;987.1;;;7.1;82.3
56272;BME280;42177;48.914;18.160;2022-12-29T15:31:47;987.3;;;7.1;82.2
56272;BME280;42177;48.914;18.160;2022-12-29T15:36:49;987.3;;;7.1;82.2
56272;BME280;42177;48.914;18.160;2022-12-29T15:41:47;987.4;;;6.9;83.3
56272;BME280;42177;48.914;18.160;2022-12-29T15:46:47;987.4;;;6.9;83.3
56272;BME280;42177;48.914;18.160;2022-12-29T15:51:47;987.4;;;6.8;83.6
56272;BME280;42177;48.914;18.160;2022-12-29T15:56:47;987.4;;;6.8;83.6
56272;BME280;42177;48.914;18.160;2022-12-29T16:01:47;987.4;;;6.6;86.5
56272;BME280;42177;48.914;18.160;2022-12-29T16:06:54;987.4;;;6.6;86.5
56272;BME280;42177;48.914;18.160;2022-12-29T16:11:47;987.4;;;6.8;85.8
56272;BME280;42177;48.914;18.160;2022-12-29T16:16:47;987.4;;;6.8;85.8
56272;BME280;42177;48.914;18.160;2022-12-29T16:21:47;987.4;;;6.7;86.6
56272;BME280;42177;48.914;18.160;2022-12-29T16:26:47;987.4;;;6.7;86.6
56272;BME280;42177;48.914;18.160;2022-12-29T16:31:50;987.1;;;6.6;86.9
56272;BME280;42177;48.914;18.160;2022-12-29T16:36:52;987.1;;;6.6;86.9
56272;BME280;42177;48.914;18.160;2022-12-29T16:41:47;987.4;;;6.7;86.5
56272;BME280;42177;48.914;18.160;2022-12-29T16:47:04;987.4;;;6.7;86.5
56272;BME280;42177;48.914;18.160;2022-12-29T16:51:47;987.2;;;6.6;88.2
56272;BME280;42177;48.914;18.160;2022-12-29T16:56:47;987.2;;;6.6;88.2
56272;BME280;42177;48.914;18.160;2022-12-29T17:01:47;987.5;;;6.6;87.9
56272;BME280;42177;48.914;18.160;2022-12-29T17:06:47;987.5;;;6.6;87.9
56272;BME280;42177;48.914;18.160;2022-12-29T17:11:47;987.3;;;6.5;87.7
56272;BME280;42177;48.914;18.160;2022-12-29T17:16:47;987.3;;;6.5;87.7
56272;BME280;42177;48.914;18.160;2022-12-29T17:21:47;987.3;;;6.6;87.7
56272;BME280;42177;48.914;18.160;2022-12-29T17:26:48;987.3;;;6.6;87.7
56272;BME280;42177;48.914;18.160;2022-12-29T17:31:47;987.4;;;6.4;88.3
56272;BME280;42177;48.914;18.160;2022-12-29T17:36:47;987.4;;;6.4;88.3
56272;BME280;42177;48.914;18.160;2022-12-29T17:41:47;987.4;;;6.5;88.1
56272;BME280;42177;48.914;18.160;2022-12-29T17:46:47;987.4;;;6.5;88.1
56272;BME280;42177;48.914;18.160;2022-12-29T17:51:47;987.2;;;6.5;87.5
56272;BME280;42177;48.914;18.160;2022-12-29T17:56:47;987.2;;;6.5;87.5
56272;BME280;42177;48.914;18.160;2022-12-29T18:01:47;987.1;;;6.2;88.5
56272;BME280;42177;48.914;18.160;2022-12-29T18:06:47;987.1;;;6.2;88.5
56272;BME280;42177;48.914;18.160;2022-12-29T18:11:47;987.3;;;6.5;87.6
56272;BME280;42177;48.914;18.160;2022-12-29T18:16:47;987.3;;;6.5;87.6
56272;BME280;42177;48.914;18.160;2022-12-29T18:21:47;987.3;;;6.5;87.7
56272;BME280;42177;48.914;18.160;2022-12-29T18:26:47;987.3;;;6.5;87.7
56272;BME280;42177;48.914;18.160;2022-12-29T18:31:47;987.3;;;6.3;88.2
56272;BME280;42177;48.914;18.160;2022-12-29T18:36:47;987.3;;;6.3;88.2
56272;BME280;42177;48.914;18.160;2022-12-29T18:41:47;987.3;;;6.4;87.6
56272;BME280;42177;48.914;18.160;2022-12-29T18:46:47;987.3;;;6.4;87.6
56272;BME280;42177;48.914;18.160;2022-12-29T18:51:47;987;;;6.2;88.2
56272;BME280;42177;48.914;18.160;2022-12-29T18:56:47;987;;;6.2;88.2
56272;BME280;42177;48.914;18.160;2022-12-29T19:01:47;987.1;;;6.4;87.6
56272;BME280;42177;48.914;18.160;2022-12-29T19:06:47;987.1;;;6.4;87.6
56272;BME280;42177;48.914;18.160;2022-12-29T19:11:47;987.2;;;6.4;87.5
56272;BME280;42177;48.914;18.160;2022-12-29T19:16:47;987.2;;;6.4;87.5
56272;BME280;42177;48.914;18.160;2022-12-29T19:21:47;987.2;;;6.3;87
56272;BME280;42177;48.914;18.160;2022-12-29T19:26:47;987.2;;;6.3;87
56272;BME280;42177;48.914;18.160;2022-12-29T19:31:47;987.2;;;6.5;86.5
56272;BME280;42177;48.914;18.160;2022-12-29T19:36:47;987.2;;;6.5;86.5
56272;BME280;42177;48.914;18.160;2022-12-29T19:41:47;987.2;;;6.6;85.7
56272;BME280;42177;48.914;18.160;2022-12-29T19:46:47;987.2;;;6.6;85.7
56272;BME280;42177;48.914;18.160;2022-12-29T19:51:47;987.1;;;6.7;84.4
56272;BME280;42177;48.914;18.160;2022-12-29T19:56:47;987.1;;;6.7;84.4
56272;BME280;42177;48.914;18.160;2022-12-29T20:01:47;987;;;6.5;85.1
56272;BME280;42177;48.914;18.160;2022-12-29T20:06:47;987;;;6.5;85.1
56272;BME280;42177;48.914;18.160;2022-12-29T20:11:47;987;;;6.8;84.3
56272;BME280;42177;48.914;18.160;2022-12-29T20:16:47;987;;;6.8;84.3
56272;BME280;42177;48.914;18.160;2022-12-29T20:21:47;987;;;6.6;84.1
56272;BME280;42177;48.914;18.160;2022-12-29T20:26:47;987;;;6.6;84.1
56272;BME280;42177;48.914;18.160;2022-12-29T20:31:47;986.7;;;6.9;82.4
56272;BME280;42177;48.914;18.160;2022-12-29T20:36:47;986.7;;;6.9;82.4
56272;BME280;42177;48.914;18.160;2022-12-29T20:41:47;986.8;;;6.8;82.1
56272;BME280;42177;48.914;18.160;2022-12-29T20:46:47;986.8;;;6.8;82.1
56272;BME280;42177;48.914;18.160;2022-12-29T20:51:47;986.7;;;6.8;81.9
56272;BME280;42177;48.914;18.160;2022-12-29T20:56:47;986.7;;;6.8;81.9
56272;BME280;42177;48.914;18.160;2022-12-29T21:01:47;986.8;;;6.9;81.5
56272;BME280;42177;48.914;18.160;2022-12-29T21:06:47;986.8;;;6.9;81.5
56272;BME280;42177;48.914;18.160;2022-12-29T21:11:47;986.9;;;7;80.8
56272;BME280;42177;48.914;18.160;2022-12-29T21:16:47;986.9;;;7;80.8
56272;BME280;42177;48.914;18.160;2022-12-29T21:21:47;986.7;;;7.1;80.5
56272;BME280;42177;48.914;18.160;2022-12-29T21:26:47;986.7;;;7.1;80.5
56272;BME280;42177;48.914;18.160;2022-12-29T21:31:47;986.8;;;7.2;79.8
56272;BME280;42177;48.914;18.160;2022-12-29T21:36:47;986.8;;;7.2;79.8
56272;BME280;42177;48.914;18.160;2022-12-29T21:41:47;986.6;;;7.2;80
56272;BME280;42177;48.914;18.160;2022-12-29T21:46:47;986.6;;;7.2;80
56272;BME280;42177;48.914;18.160;2022-12-29T21:51:47;986.7;;;7.2;80.4
56272;BME280;42177;48.914;18.160;2022-12-29T21:56:47;986.7;;;7.2;80.4
56272;BME280;42177;48.914;18.160;2022-12-29T22:01:47;986.7;;;6.3;86.3
56272;BME280;42177;48.914;18.160;2022-12-29T22:06:47;986.7;;;6.3;86.3
56272;BME280;42177;48.914;18.160;2022-12-29T22:11:47;986.8;;;6;87.6
56272;BME280;42177;48.914;18.160;2022-12-29T22:16:47;986.8;;;6;87.6
56272;BME280;42177;48.914;18.160;2022-12-29T22:21:47;986.7;;;5.9;88.9
56272;BME280;42177;48.914;18.160;2022-12-29T22:26:47;986.7;;;5.9;88.9
56272;BME280;42177;48.914;18.160;2022-12-29T22:31:47;986.7;;;6.2;87.7
56272;BME280;42177;48.914;18.160;2022-12-29T22:36:47;986.7;;;6.2;87.7
56272;BME280;42177;48.914;18.160;2022-12-29T22:41:47;986.8;;;5.8;89.7
56272;BME280;42177;48.914;18.160;2022-12-29T22:46:47;986.8;;;5.8;89.7
56272;BME280;42177;48.914;18.160;2022-12-29T22:51:47;986.6;;;6.1;88.4
56272;BME280;42177;48.914;18.160;2022-12-29T22:56:47;986.6;;;6.1;88.4
56272;BME280;42177;48.914;18.160;2022-12-29T23:01:47;986.5;;;5.9;89.2
56272;BME280;42177;48.914;18.160;2022-12-29T23:06:47;986.5;;;5.9;89.2
56272;BME280;42177;48.914;18.160;2022-12-29T23:11:47;986.3;;;6;88.8
56272;BME280;42177;48.914;18.160;2022-12-29T23:16:47;986.3;;;6;88.8
56272;BME280;42177;48.914;18.160;2022-12-29T23:21:47;986.3;;;5.7;90.7
56272;BME280;42177;48.914;18.160;2022-12-29T23:26:47;986.3;;;5.7;90.7
56272;BME280;42177;48.914;18.160;2022-12-29T23:31:47;986.2;;;5.4;92.1
56272;BME280;42177;48.914;18.160;2022-12-29T23:36:47;986.2;;;5.4;92.1
56272;BME280;42177;48.914;18.160;2022-12-29T23:41:47;986.3;;;5.7;92
56272;BME280;42177;48.914;18.160;2022-12-29T23:46:47;986.3;;;5.7;92
56272;BME280;42177;48.914;18.160;2022-12-29T23:51:47;986.4;;;5.6;92.4
56272;BME280;42177;48.914;18.160;2022-12-29T23:56:47;986.4;;;5.6;92.4
